createdAt,value
2019-03-08T00:00:13.557Z,76.61
2019-03-08T00:01:13.440Z,76.90
2019-03-08T00:02:13.335Z,76.71
2019-03-08T00:03:13.239Z,76.61
2019-03-08T00:04:13.137Z,77.37
2019-03-08T00:05:13.159Z,76.99
2019-03-08T00:06:12.937Z,76.80
2019-03-08T00:07:12.840Z,76.71
2019-03-08T00:08:12.741Z,76.99
2019-03-08T00:09:12.668Z,76.52
2019-03-08T00:10:12.559Z,76.80
2019-03-08T00:11:12.440Z,76.80
2019-03-08T00:12:12.444Z,76.80
2019-03-08T00:13:12.245Z,76.80
2019-03-08T00:14:12.141Z,76.61
2019-03-08T00:15:12.056Z,77.47
2019-03-08T00:16:11.939Z,77.47
2019-03-08T00:17:11.844Z,76.90
2019-03-08T00:18:11.745Z,77.28
2019-03-08T00:19:11.745Z,77.37
2019-03-08T00:20:11.557Z,77.18
2019-03-08T00:21:11.441Z,76.71
2019-03-08T00:22:11.343Z,77.28
2019-03-08T00:23:11.242Z,77.28
2019-03-08T00:24:11.142Z,77.37
2019-03-08T00:25:11.059Z,77.28
2019-03-08T00:26:11.042Z,77.56
2019-03-08T00:27:10.846Z,77.05
2019-03-08T00:28:10.748Z,77.43
2019-03-08T00:29:10.647Z,77.37
2019-03-08T00:30:10.558Z,77.24
2019-03-08T00:31:10.441Z,77.37
2019-03-08T00:32:10.343Z,77.18
2019-03-08T00:33:10.348Z,76.71
2019-03-08T00:34:10.143Z,76.99
2019-03-08T00:35:10.061Z,76.61
2019-03-08T00:36:09.946Z,76.52
2019-03-08T00:37:09.845Z,76.71
2019-03-08T00:38:09.746Z,77.18
2019-03-08T00:39:09.659Z,77.37
2019-03-08T00:40:09.663Z,77.47
2019-03-08T00:41:09.446Z,76.99
2019-03-08T00:42:09.348Z,76.61
2019-03-08T00:43:09.245Z,77.37
2019-03-08T00:44:09.148Z,77.37
2019-03-08T00:45:09.067Z,77.09
2019-03-08T00:46:08.947Z,77.18
2019-03-08T00:47:08.957Z,77.28
2019-03-08T00:48:08.752Z,77.28
2019-03-08T00:49:08.649Z,77.18
2019-03-08T00:50:08.567Z,78.00
2019-03-08T00:51:08.459Z,76.99
2019-03-08T00:52:08.353Z,77.56
2019-03-08T00:53:08.378Z,77.90
2019-03-08T00:54:08.160Z,78.00
2019-03-08T00:55:08.070Z,77.81
2019-03-08T00:56:07.955Z,78.00
2019-03-08T00:57:07.853Z,78.09
2019-03-08T00:58:07.754Z,78.19
2019-03-08T00:59:07.653Z,78.09
2019-03-08T01:00:07.570Z,77.77
2019-03-08T01:01:07.557Z,77.86
2019-03-08T01:02:07.356Z,77.86
2019-03-08T01:03:07.258Z,76.92
2019-03-08T01:04:07.155Z,77.29
2019-03-08T01:05:07.058Z,77.01
2019-03-08T01:06:06.986Z,77.81
2019-03-08T01:07:07.006Z,77.05
2019-03-08T01:08:06.758Z,76.57
2019-03-08T01:09:06.660Z,76.76
2019-03-08T01:10:06.577Z,76.86
2019-03-08T01:11:06.470Z,76.67
2019-03-08T01:12:06.359Z,76.57
2019-03-08T01:13:06.259Z,76.95
2019-03-08T01:14:06.158Z,77.14
2019-03-08T01:15:06.063Z,77.24
2019-03-08T01:16:05.977Z,77.43
2019-03-08T01:17:05.861Z,77.43
2019-03-08T01:18:05.759Z,77.11
2019-03-08T01:19:05.659Z,77.29
2019-03-08T01:20:05.561Z,77.20
2019-03-08T01:21:05.480Z,77.48
2019-03-08T01:22:05.363Z,77.11
2019-03-08T01:23:05.264Z,77.39
2019-03-08T01:24:05.164Z,77.29
2019-03-08T01:25:05.063Z,76.63
2019-03-08T01:26:04.976Z,76.92
2019-03-08T01:27:04.861Z,76.63
2019-03-08T01:28:04.764Z,77.24
2019-03-08T01:29:04.665Z,76.48
2019-03-08T01:30:04.573Z,76.76
2019-03-08T01:31:04.480Z,77.43
2019-03-08T01:32:05.544Z,76.86
2019-03-08T01:33:04.281Z,76.57
2019-03-08T01:34:04.163Z,77.33
2019-03-08T01:35:04.081Z,76.57
2019-03-08T01:36:03.981Z,77.33
2019-03-08T01:37:03.867Z,76.76
2019-03-08T01:38:03.767Z,77.24
2019-03-08T01:39:03.667Z,77.43
2019-03-08T01:40:03.564Z,77.43
2019-03-08T01:41:03.482Z,77.90
2019-03-08T01:42:03.372Z,77.18
2019-03-08T01:43:03.266Z,76.86
2019-03-08T01:44:03.171Z,77.84
2019-03-08T01:45:03.837Z,78.00
2019-03-08T01:46:02.985Z,77.52
2019-03-08T01:47:02.870Z,77.84
2019-03-08T01:48:02.774Z,77.18
2019-03-08T01:49:02.668Z,77.28
2019-03-08T01:50:02.575Z,77.18
2019-03-08T01:51:02.490Z,77.94
2019-03-08T01:52:02.370Z,78.03
2019-03-08T01:53:02.275Z,78.03
2019-03-08T01:54:02.188Z,78.03
2019-03-08T01:55:02.078Z,78.13
2019-03-08T01:56:01.988Z,78.03
2019-03-08T01:57:01.875Z,78.13
2019-03-08T01:58:01.773Z,77.75
2019-03-08T01:59:01.673Z,78.03
2019-03-08T02:00:01.573Z,78.13
2019-03-08T02:01:01.489Z,78.32
2019-03-08T02:02:01.374Z,78.61
2019-03-08T02:03:01.277Z,78.80
2019-03-08T02:04:01.175Z,78.89
2019-03-08T02:05:01.077Z,78.89
2019-03-08T02:06:00.994Z,78.80
2019-03-08T02:07:00.875Z,78.70
2019-03-08T02:08:00.775Z,78.51
2019-03-08T02:09:00.679Z,78.61
2019-03-08T02:10:00.686Z,78.70
2019-03-08T02:11:00.498Z,78.80
2019-03-08T02:12:00.378Z,78.61
2019-03-08T02:13:00.285Z,78.70
2019-03-08T02:14:00.182Z,78.70
2019-03-08T02:15:00.094Z,78.70
2019-03-08T02:15:59.997Z,79.08
2019-03-08T02:16:59.984Z,78.99
2019-03-08T02:17:59.781Z,79.65
2019-03-08T02:18:59.686Z,78.99
2019-03-08T02:19:59.593Z,78.99
2019-03-08T02:21:06.437Z,80.13
2019-03-08T02:21:59.383Z,79.46
2019-03-08T02:22:59.284Z,79.46
2019-03-08T02:23:59.195Z,79.36
2019-03-08T02:24:59.087Z,79.36
2019-03-08T02:25:59.007Z,80.13
2019-03-08T02:26:58.892Z,79.74
2019-03-08T02:27:58.805Z,79.74
2019-03-08T02:28:58.691Z,80.03
2019-03-08T02:29:58.592Z,80.13
2019-03-08T02:30:58.507Z,80.41
2019-03-08T02:31:58.398Z,80.22
2019-03-08T02:32:58.294Z,80.22
2019-03-08T02:33:58.195Z,80.79
2019-03-08T02:34:58.095Z,80.41
2019-03-08T02:35:58.011Z,80.69
2019-03-08T02:36:57.898Z,80.32
2019-03-08T02:37:57.795Z,81.45
2019-03-08T02:38:57.704Z,80.79
2019-03-08T02:39:57.597Z,81.36
2019-03-08T02:40:57.540Z,80.88
2019-03-08T02:41:57.401Z,80.69
2019-03-08T02:42:57.303Z,80.79
2019-03-08T02:43:57.202Z,81.55
2019-03-08T02:44:57.100Z,81.07
2019-03-08T02:45:57.019Z,81.45
2019-03-08T02:46:56.901Z,80.88
2019-03-08T02:47:56.807Z,80.79
2019-03-08T02:48:56.707Z,81.07
2019-03-08T02:49:56.602Z,81.55
2019-03-08T02:50:56.546Z,81.36
2019-03-08T02:51:56.435Z,81.84
2019-03-08T02:52:56.318Z,81.74
2019-03-08T02:53:56.206Z,81.55
2019-03-08T02:54:56.110Z,81.74
2019-03-08T02:55:56.033Z,81.55
2019-03-08T02:56:55.910Z,81.36
2019-03-08T02:57:55.810Z,81.36
2019-03-08T02:58:55.709Z,81.45
2019-03-08T02:59:55.611Z,81.45
2019-03-08T03:00:55.512Z,81.74
2019-03-08T03:01:55.431Z,81.45
2019-03-08T03:02:55.310Z,81.45
2019-03-08T03:03:55.216Z,80.98
2019-03-08T03:04:55.116Z,81.74
2019-03-08T03:05:55.017Z,81.65
2019-03-08T03:06:55.140Z,81.55
2019-03-08T03:07:54.820Z,81.36
2019-03-08T03:08:54.719Z,81.65
2019-03-08T03:09:54.617Z,81.65
2019-03-08T03:10:54.521Z,81.36
2019-03-08T03:11:54.433Z,81.55
2019-03-08T03:12:54.319Z,81.55
2019-03-08T03:13:54.327Z,81.26
2019-03-08T03:14:54.119Z,81.55
2019-03-08T03:15:54.031Z,81.26
2019-03-08T03:16:53.937Z,81.45
2019-03-08T03:17:53.824Z,81.65
2019-03-08T03:18:53.722Z,81.74
2019-03-08T03:19:53.622Z,81.55
2019-03-08T03:20:53.625Z,81.45
2019-03-08T03:21:53.442Z,81.36
2019-03-08T03:22:53.324Z,81.55
2019-03-08T03:23:53.228Z,81.65
2019-03-08T03:24:53.126Z,81.36
2019-03-08T03:25:53.029Z,81.84
2019-03-08T03:26:52.947Z,81.84
2019-03-08T03:27:52.929Z,81.45
2019-03-08T03:28:52.732Z,81.45
2019-03-08T03:29:52.629Z,81.55
2019-03-08T03:30:52.537Z,81.26
2019-03-08T03:31:52.453Z,81.74
2019-03-08T03:32:52.345Z,81.55
2019-03-08T03:33:52.235Z,81.74
2019-03-08T03:34:52.243Z,81.26
2019-03-08T03:35:52.040Z,81.26
2019-03-08T03:36:51.955Z,81.36
2019-03-08T03:37:51.834Z,81.65
2019-03-08T03:38:51.737Z,81.36
2019-03-08T03:39:51.635Z,81.45
2019-03-08T03:40:51.557Z,81.65
2019-03-08T03:41:51.557Z,81.26
2019-03-08T03:42:51.337Z,81.45
2019-03-08T03:43:51.241Z,81.45
2019-03-08T03:44:51.143Z,81.45
2019-03-08T03:45:51.037Z,81.74
2019-03-08T03:46:50.955Z,81.84
2019-03-08T03:47:50.842Z,82.03
2019-03-08T03:48:50.842Z,82.12
2019-03-08T03:49:50.644Z,82.12
2019-03-08T03:50:50.542Z,82.03
2019-03-08T03:51:50.461Z,81.84
2019-03-08T03:52:50.346Z,81.65
2019-03-08T03:53:50.247Z,82.50
2019-03-08T03:54:50.149Z,82.69
2019-03-08T03:55:50.145Z,82.59
2019-03-08T03:56:49.971Z,82.97
2019-03-08T03:57:49.847Z,82.88
2019-03-08T03:58:49.749Z,82.88
2019-03-08T03:59:49.651Z,82.88
2019-03-08T04:00:49.552Z,83.16
2019-03-08T04:01:49.465Z,83.26
2019-03-08T04:02:49.465Z,83.73
2019-03-08T04:03:49.256Z,84.11
2019-03-08T04:04:49.157Z,84.34
2019-03-08T04:05:49.058Z,84.30
2019-03-08T04:06:48.971Z,84.16
2019-03-08T04:07:48.854Z,84.59
2019-03-08T04:08:48.755Z,84.11
2019-03-08T04:09:48.657Z,84.25
2019-03-08T04:10:48.562Z,84.40
2019-03-08T04:11:48.494Z,83.92
2019-03-08T04:12:48.362Z,84.21
2019-03-08T04:13:48.258Z,84.97
2019-03-08T04:14:48.162Z,84.82
2019-03-08T04:15:48.059Z,84.68
2019-03-08T04:16:47.978Z,84.59
2019-03-08T04:17:47.863Z,85.63
2019-03-08T04:18:47.762Z,84.68
2019-03-08T04:19:47.665Z,84.78
2019-03-08T04:20:47.569Z,85.06
2019-03-08T04:21:47.485Z,84.91
2019-03-08T04:22:47.366Z,84.72
2019-03-08T04:23:47.270Z,84.91
2019-03-08T04:24:47.172Z,84.72
2019-03-08T04:25:47.070Z,84.63
2019-03-08T04:26:46.998Z,84.78
2019-03-08T04:27:46.871Z,84.72
2019-03-08T04:28:46.779Z,84.97
2019-03-08T04:29:46.673Z,84.49
2019-03-08T04:30:46.573Z,85.35
2019-03-08T04:31:46.491Z,85.30
2019-03-08T04:32:46.374Z,85.11
2019-03-08T04:33:46.277Z,84.91
2019-03-08T04:34:46.176Z,84.68
2019-03-08T04:35:46.081Z,84.87
2019-03-08T04:36:45.999Z,85.63
2019-03-08T04:37:45.880Z,84.78
2019-03-08T04:38:45.779Z,85.01
2019-03-08T04:39:45.680Z,84.87
2019-03-08T04:40:45.584Z,85.63
2019-03-08T04:41:45.489Z,84.72
2019-03-08T04:42:45.399Z,84.78
2019-03-08T04:43:45.285Z,84.78
2019-03-08T04:44:45.185Z,84.63
2019-03-08T04:45:45.082Z,84.72
2019-03-08T04:46:45.004Z,84.91
2019-03-08T04:47:44.903Z,84.68
2019-03-08T04:48:44.790Z,85.25
2019-03-08T04:49:44.686Z,85.11
2019-03-08T04:50:44.594Z,85.25
2019-03-08T04:51:44.497Z,85.16
2019-03-08T04:52:44.407Z,86.39
2019-03-08T04:53:44.292Z,86.20
2019-03-08T04:54:44.193Z,85.82
2019-03-08T04:55:44.096Z,86.30
2019-03-08T04:56:43.995Z,85.72
2019-03-08T04:57:43.922Z,87.53
2019-03-08T04:58:43.797Z,87.67
2019-03-08T04:59:43.712Z,87.67
2019-03-08T05:00:43.597Z,87.29
2019-03-08T05:01:43.499Z,87.24
2019-03-08T05:02:43.415Z,88.20
2019-03-08T05:03:43.300Z,87.38
2019-03-08T05:04:43.203Z,87.67
2019-03-08T05:05:43.101Z,88.01
2019-03-08T05:06:43.003Z,88.10
2019-03-08T05:07:42.919Z,88.10
2019-03-08T05:08:42.803Z,88.34
2019-03-08T05:09:42.703Z,87.95
2019-03-08T05:10:42.605Z,88.20
2019-03-08T05:11:42.510Z,88.29
2019-03-08T05:12:42.424Z,88.10
2019-03-08T05:13:42.309Z,88.29
2019-03-08T05:14:42.208Z,88.01
2019-03-08T05:15:42.114Z,88.67
2019-03-08T05:16:42.012Z,88.20
2019-03-08T05:17:41.925Z,87.91
2019-03-08T05:18:41.810Z,88.67
2019-03-08T05:19:41.711Z,88.71
2019-03-08T05:20:41.613Z,88.34
2019-03-08T05:21:41.511Z,88.67
2019-03-08T05:22:41.434Z,88.67
2019-03-08T05:23:41.317Z,87.91
2019-03-08T05:24:41.218Z,88.48
2019-03-08T05:25:41.221Z,88.67
2019-03-08T05:26:41.016Z,88.57
2019-03-08T05:27:40.938Z,88.57
2019-03-08T05:28:40.819Z,88.76
2019-03-08T05:29:40.719Z,88.57
2019-03-08T05:30:40.620Z,88.20
2019-03-08T05:31:40.523Z,88.01
2019-03-08T05:32:40.547Z,88.48
2019-03-08T05:33:40.321Z,88.67
2019-03-08T05:34:40.225Z,88.29
2019-03-08T05:35:40.124Z,87.82
2019-03-08T05:36:40.024Z,88.57
2019-03-08T05:37:39.943Z,87.82
2019-03-08T05:38:39.826Z,88.76
2019-03-08T05:39:39.724Z,88.20
2019-03-08T05:40:39.630Z,87.72
2019-03-08T05:41:39.533Z,88.57
2019-03-08T05:42:39.445Z,87.91
2019-03-08T05:43:39.331Z,88.48
2019-03-08T05:44:39.232Z,88.57
2019-03-08T05:45:39.131Z,87.91
2019-03-08T05:46:39.141Z,87.91
2019-03-08T05:47:38.958Z,88.57
2019-03-08T05:48:38.834Z,89.05
2019-03-08T05:49:38.733Z,88.57
2019-03-08T05:50:38.638Z,88.67
2019-03-08T05:51:38.536Z,88.86
2019-03-08T05:52:38.455Z,88.57
2019-03-08T05:53:38.457Z,89.24
2019-03-08T05:54:38.237Z,88.57
2019-03-08T05:55:38.138Z,88.20
2019-03-08T05:56:38.041Z,88.76
2019-03-08T05:57:37.956Z,88.76
2019-03-08T05:58:37.842Z,88.86
2019-03-08T05:59:37.744Z,88.48
2019-03-08T06:00:37.744Z,88.20
2019-03-08T06:01:37.545Z,88.57
2019-03-08T06:02:37.459Z,88.86
2019-03-08T06:03:37.346Z,88.57
2019-03-08T06:04:37.245Z,87.91
2019-03-08T06:05:37.147Z,88.20
2019-03-08T06:06:37.045Z,88.10
2019-03-08T06:07:37.066Z,88.39
2019-03-08T06:08:36.849Z,88.86
2019-03-08T06:09:36.747Z,89.05
2019-03-08T06:10:36.651Z,88.76
2019-03-08T06:11:36.552Z,88.57
2019-03-08T06:12:36.468Z,88.67
2019-03-08T06:13:36.349Z,87.82
2019-03-08T06:14:36.369Z,88.48
2019-03-08T06:15:36.155Z,88.01
2019-03-08T06:16:36.057Z,87.91
2019-03-08T06:17:35.970Z,88.39
2019-03-08T06:18:35.856Z,88.57
2019-03-08T06:19:35.758Z,88.76
2019-03-08T06:20:35.655Z,88.48
2019-03-08T06:21:35.658Z,88.57
2019-03-08T06:22:35.474Z,88.76
2019-03-08T06:23:35.359Z,88.48
2019-03-08T06:24:35.258Z,88.48
2019-03-08T06:25:35.155Z,88.95
2019-03-08T06:26:35.058Z,88.95
2019-03-08T06:27:34.960Z,88.95
2019-03-08T06:28:34.981Z,89.14
2019-03-08T06:29:34.773Z,88.86
2019-03-08T06:30:34.663Z,88.57
2019-03-08T06:31:34.570Z,88.57
2019-03-08T06:32:34.463Z,88.67
2019-03-08T06:33:34.378Z,88.86
2019-03-08T06:34:34.266Z,89.05
2019-03-08T06:35:34.272Z,88.86
2019-03-08T06:36:34.067Z,88.39
2019-03-08T06:37:33.971Z,89.14
2019-03-08T06:38:33.884Z,88.53
2019-03-08T06:39:33.770Z,88.90
2019-03-08T06:40:33.668Z,88.71
2019-03-08T06:41:33.695Z,89.00
2019-03-08T06:42:33.471Z,88.53
2019-03-08T06:43:33.385Z,89.09
2019-03-08T06:44:33.272Z,88.53
2019-03-08T06:45:33.173Z,88.90
2019-03-08T06:46:33.072Z,88.81
2019-03-08T06:47:32.977Z,89.09
2019-03-08T06:48:32.893Z,89.28
2019-03-08T06:49:32.885Z,89.28
2019-03-08T06:50:32.681Z,89.76
2019-03-08T06:51:32.578Z,89.09
2019-03-08T06:52:32.483Z,89.43
2019-03-08T06:53:32.397Z,89.47
2019-03-08T06:54:32.282Z,89.67
2019-03-08T06:55:32.182Z,89.95
2019-03-08T06:56:32.085Z,89.57
2019-03-08T06:57:31.984Z,89.24
2019-03-08T06:58:31.903Z,89.05
2019-03-08T06:59:31.787Z,89.28
2019-03-08T07:00:31.690Z,89.47
2019-03-08T07:01:31.598Z,89.38
2019-03-08T07:02:31.495Z,89.47
2019-03-08T07:03:31.409Z,89.95
2019-03-08T07:04:31.295Z,89.47
2019-03-08T07:05:31.195Z,89.86
2019-03-08T07:06:31.098Z,89.28
2019-03-08T07:07:30.999Z,89.38
2019-03-08T07:08:30.914Z,89.38
2019-03-08T07:09:30.798Z,89.57
2019-03-08T07:10:30.701Z,89.28
2019-03-08T07:11:30.605Z,90.14
2019-03-08T07:12:30.506Z,89.09
2019-03-08T07:13:30.419Z,89.86
2019-03-08T07:14:30.308Z,90.14
2019-03-08T07:15:30.211Z,89.47
2019-03-08T07:16:30.108Z,90.05
2019-03-08T07:17:30.009Z,89.47
2019-03-08T07:18:29.929Z,89.67
2019-03-08T07:19:29.817Z,90.33
2019-03-08T07:20:29.716Z,90.14
2019-03-08T07:21:29.615Z,89.76
2019-03-08T07:22:29.519Z,90.71
2019-03-08T07:23:29.436Z,90.71
2019-03-08T07:24:29.322Z,90.33
2019-03-08T07:25:29.221Z,90.71
2019-03-08T07:26:29.125Z,90.52
2019-03-08T07:27:29.024Z,90.33
2019-03-08T07:28:28.945Z,90.71
2019-03-08T07:29:28.833Z,90.76
2019-03-08T07:30:28.725Z,90.66
2019-03-08T07:31:28.629Z,90.85
2019-03-08T07:32:28.531Z,90.85
2019-03-08T07:33:28.434Z,90.57
2019-03-08T07:34:28.351Z,90.85
2019-03-08T07:35:28.240Z,90.66
2019-03-08T07:36:28.137Z,91.24
2019-03-08T07:37:28.040Z,90.95
2019-03-08T07:38:27.942Z,91.04
2019-03-08T07:39:27.865Z,90.66
2019-03-08T07:40:27.741Z,90.66
2019-03-08T07:41:28.956Z,90.85
2019-03-08T07:42:27.543Z,90.66
2019-03-08T07:43:27.447Z,91.24
2019-03-08T07:44:27.368Z,90.85
2019-03-08T07:45:27.248Z,91.14
2019-03-08T07:46:27.149Z,90.85
2019-03-08T07:47:27.055Z,90.95
2019-03-08T07:48:26.952Z,90.95
2019-03-08T07:49:26.868Z,91.24
2019-03-08T07:50:26.754Z,91.24
2019-03-08T07:51:26.662Z,91.24
2019-03-08T07:52:26.556Z,90.85
2019-03-08T07:53:26.457Z,90.95
2019-03-08T07:54:26.375Z,90.38
2019-03-08T07:55:26.260Z,90.28
2019-03-08T07:56:26.163Z,90.57
2019-03-08T07:57:26.060Z,90.38
2019-03-08T07:58:26.609Z,90.19
2019-03-08T07:59:25.881Z,90.38
2019-03-08T08:00:25.764Z,91.24
2019-03-08T08:01:25.666Z,90.57
2019-03-08T08:02:25.567Z,90.57
2019-03-08T08:03:25.476Z,90.66
2019-03-08T08:04:25.390Z,91.14
2019-03-08T08:05:25.273Z,90.95
2019-03-08T08:06:25.171Z,91.33
2019-03-08T08:07:25.076Z,91.04
2019-03-08T08:08:24.971Z,90.47
2019-03-08T08:09:24.893Z,90.47
2019-03-08T08:10:24.776Z,90.57
2019-03-08T08:11:24.680Z,90.85
2019-03-08T08:12:24.581Z,90.38
2019-03-08T08:13:24.478Z,90.47
2019-03-08T08:14:24.396Z,90.19
2019-03-08T08:15:24.282Z,90.00
2019-03-08T08:16:24.188Z,90.47
2019-03-08T08:17:24.080Z,91.14
2019-03-08T08:18:23.983Z,90.09
2019-03-08T08:19:23.924Z,90.85
2019-03-08T08:20:23.784Z,90.38
2019-03-08T08:21:23.687Z,90.19
2019-03-08T08:22:23.587Z,91.04
2019-03-08T08:23:23.496Z,90.28
2019-03-08T08:24:23.404Z,90.47
2019-03-08T08:25:23.287Z,90.76
2019-03-08T08:26:23.187Z,90.19
2019-03-08T08:27:23.090Z,90.19
2019-03-08T08:28:22.996Z,90.47
2019-03-08T08:29:22.908Z,90.47
2019-03-08T08:30:22.792Z,90.66
2019-03-08T08:31:22.721Z,90.09
2019-03-08T08:32:22.598Z,91.14
2019-03-08T08:33:22.494Z,90.47
2019-03-08T08:34:22.819Z,90.66
2019-03-08T08:35:22.306Z,90.28
2019-03-08T08:36:22.201Z,90.33
2019-03-08T08:37:22.099Z,90.05
2019-03-08T08:38:22.002Z,90.80
2019-03-08T08:39:21.907Z,90.42
2019-03-08T08:40:21.820Z,91.19
2019-03-08T08:41:21.809Z,91.09
2019-03-08T08:42:21.609Z,90.23
2019-03-08T08:43:21.506Z,90.23
2019-03-08T08:44:21.415Z,90.14
2019-03-08T08:45:21.326Z,90.33
2019-03-08T08:46:21.214Z,90.71
2019-03-08T08:47:21.115Z,90.61
2019-03-08T08:48:21.127Z,90.80
2019-03-08T08:49:20.917Z,90.99
2019-03-08T08:50:20.832Z,90.71
2019-03-08T08:51:20.717Z,90.52
2019-03-08T08:52:20.615Z,90.99
2019-03-08T08:53:20.520Z,90.42
2019-03-08T08:54:20.420Z,90.95
2019-03-08T08:55:20.440Z,91.04
2019-03-08T08:56:20.224Z,91.14
2019-03-08T08:57:20.126Z,90.95
2019-03-08T08:58:20.026Z,91.04
2019-03-08T08:59:19.924Z,90.95
2019-03-08T09:00:19.844Z,91.24
2019-03-08T09:01:19.728Z,91.75
2019-03-08T09:02:19.739Z,90.99
2019-03-08T09:03:19.532Z,91.38
2019-03-08T09:04:19.432Z,90.33
2019-03-08T09:05:19.364Z,90.52
2019-03-08T09:06:19.232Z,90.52
2019-03-08T09:07:19.138Z,90.99
2019-03-08T09:08:19.038Z,91.19
2019-03-08T09:09:19.044Z,90.90
2019-03-08T09:10:18.854Z,91.19
2019-03-08T09:11:18.738Z,90.99
2019-03-08T09:12:18.640Z,90.76
2019-03-08T09:13:18.541Z,91.42
2019-03-08T09:14:18.441Z,91.47
2019-03-08T09:15:18.361Z,91.19
2019-03-08T09:16:18.359Z,91.47
2019-03-08T09:17:18.147Z,90.90
2019-03-08T09:18:18.047Z,91.66
2019-03-08T09:19:17.974Z,90.71
2019-03-08T09:20:17.866Z,91.19
2019-03-08T09:21:17.751Z,91.19
2019-03-08T09:22:17.775Z,90.90
2019-03-08T09:23:17.553Z,90.99
2019-03-08T09:24:17.455Z,90.99
2019-03-08T09:25:17.378Z,91.19
2019-03-08T09:26:17.257Z,91.38
2019-03-08T09:27:17.157Z,90.76
2019-03-08T09:28:17.063Z,91.04
2019-03-08T09:29:17.765Z,91.80
2019-03-08T09:30:16.980Z,91.42
2019-03-08T09:31:16.763Z,91.80
2019-03-08T09:32:16.666Z,91.71
2019-03-08T09:33:16.567Z,91.42
2019-03-08T09:34:16.467Z,91.24
2019-03-08T09:35:16.390Z,92.09
2019-03-08T09:36:16.271Z,91.61
2019-03-08T09:37:16.274Z,91.61
2019-03-08T09:38:17.488Z,91.61
2019-03-08T09:39:15.972Z,91.33
2019-03-08T09:40:15.893Z,91.61
2019-03-08T09:41:15.773Z,91.42
2019-03-08T09:42:15.675Z,91.80
2019-03-08T09:43:15.576Z,91.99
2019-03-08T09:44:15.486Z,91.80
2019-03-08T09:45:15.399Z,91.71
2019-03-08T09:46:15.281Z,91.99
2019-03-08T09:47:15.184Z,91.99
2019-03-08T09:48:15.081Z,91.99
2019-03-08T09:49:14.985Z,91.71
2019-03-08T09:50:14.886Z,91.89
2019-03-08T09:51:14.804Z,92.28
2019-03-08T09:52:14.698Z,91.99
2019-03-08T09:53:14.604Z,92.18
2019-03-08T09:54:14.487Z,92.18
2019-03-08T09:55:14.389Z,91.80
2019-03-08T09:56:14.306Z,92.28
2019-03-08T09:57:14.189Z,91.80
2019-03-08T09:58:14.089Z,92.47
2019-03-08T09:59:13.991Z,91.99
2019-03-08T10:00:13.895Z,92.28
2019-03-08T10:01:16.818Z,91.89
2019-03-08T10:02:13.695Z,92.18
2019-03-08T10:03:13.598Z,91.99
2019-03-08T10:04:13.496Z,91.71
2019-03-08T10:05:13.403Z,91.71
2019-03-08T10:06:13.321Z,91.61
2019-03-08T10:07:13.202Z,91.52
2019-03-08T10:08:13.104Z,91.33
2019-03-08T10:09:13.002Z,91.61
2019-03-08T10:10:12.905Z,91.52
2019-03-08T10:11:12.827Z,91.24
2019-03-08T10:12:12.705Z,90.95
2019-03-08T10:13:12.605Z,91.71
2019-03-08T10:14:12.505Z,91.14
2019-03-08T10:15:12.414Z,90.95
2019-03-08T10:16:12.328Z,90.85
2019-03-08T10:17:12.211Z,91.33
2019-03-08T10:18:12.109Z,90.95
2019-03-08T10:19:12.014Z,91.24
2019-03-08T10:20:11.915Z,91.04
2019-03-08T10:21:11.830Z,90.71
2019-03-08T10:22:11.714Z,90.61
2019-03-08T10:23:19.678Z,90.71
2019-03-08T10:24:11.516Z,90.99
2019-03-08T10:25:11.419Z,90.71
2019-03-08T10:26:11.338Z,90.61
2019-03-08T10:27:11.220Z,91.19
2019-03-08T10:28:11.122Z,90.99
2019-03-08T10:29:11.034Z,91.19
2019-03-08T10:30:10.926Z,90.99
2019-03-08T10:31:10.841Z,90.99
2019-03-08T10:32:10.726Z,91.09
2019-03-08T10:33:10.629Z,90.99
2019-03-08T10:34:10.528Z,90.42
2019-03-08T10:35:10.440Z,90.90
2019-03-08T10:36:10.350Z,90.71
2019-03-08T10:37:10.233Z,91.47
2019-03-08T10:38:10.137Z,90.99
2019-03-08T10:39:10.035Z,90.90
2019-03-08T10:40:09.943Z,90.90
2019-03-08T10:41:09.855Z,91.09
2019-03-08T10:42:09.760Z,90.61
2019-03-08T10:43:09.642Z,90.90
2019-03-08T10:44:11.383Z,90.99
2019-03-08T10:45:09.449Z,91.19
2019-03-08T10:46:15.483Z,90.99
2019-03-08T10:47:09.248Z,90.80
2019-03-08T10:48:09.150Z,90.80
2019-03-08T10:49:09.058Z,90.99
2019-03-08T10:50:08.953Z,90.42
2019-03-08T10:51:08.876Z,90.52
2019-03-08T10:52:17.148Z,90.90
2019-03-08T10:53:08.658Z,90.52
2019-03-08T10:54:08.562Z,90.99
2019-03-08T10:55:08.465Z,90.99
2019-03-08T10:56:08.383Z,91.66
2019-03-08T10:57:08.265Z,90.90
2019-03-08T10:58:08.167Z,91.19
2019-03-08T10:59:08.072Z,91.19
2019-03-08T11:00:08.081Z,90.90
2019-03-08T11:01:07.888Z,90.90
2019-03-08T11:02:07.774Z,90.52
2019-03-08T11:03:07.677Z,90.90
2019-03-08T11:04:07.580Z,90.90
2019-03-08T11:05:07.483Z,91.28
2019-03-08T11:06:07.398Z,90.99
2019-03-08T11:07:07.287Z,91.38
2019-03-08T11:08:08.990Z,90.99
2019-03-08T11:09:07.086Z,91.09
2019-03-08T11:10:06.989Z,90.99
2019-03-08T11:11:06.935Z,91.09
2019-03-08T11:12:06.794Z,90.80
2019-03-08T11:13:06.694Z,91.23
2019-03-08T11:14:06.702Z,90.71
2019-03-08T11:15:06.501Z,90.61
2019-03-08T11:16:06.405Z,91.04
2019-03-08T11:17:06.317Z,90.94
2019-03-08T11:18:06.205Z,90.66
2019-03-08T11:19:08.968Z,91.13
2019-03-08T11:20:06.006Z,91.42
2019-03-08T11:21:06.029Z,91.33
2019-03-08T11:22:05.830Z,90.56
2019-03-08T11:23:05.713Z,91.61
2019-03-08T11:24:05.615Z,91.23
2019-03-08T11:25:08.599Z,90.94
2019-03-08T11:26:05.417Z,90.75
2019-03-08T11:27:05.471Z,90.94
2019-03-08T11:28:05.322Z,91.04
2019-03-08T11:29:05.124Z,91.04
2019-03-08T11:30:05.026Z,90.94
2019-03-08T11:31:04.939Z,90.94
2019-03-08T11:32:04.845Z,91.23
2019-03-08T11:33:04.733Z,90.56
2019-03-08T11:34:04.635Z,91.13
2019-03-08T11:35:04.637Z,90.75
2019-03-08T11:36:04.438Z,90.37
2019-03-08T11:37:04.369Z,90.47
2019-03-08T11:38:04.243Z,91.04
2019-03-08T11:39:04.143Z,90.56
2019-03-08T11:40:04.048Z,91.33
2019-03-08T11:41:03.949Z,91.13
2019-03-08T11:42:05.215Z,91.13
2019-03-08T11:43:03.755Z,90.56
2019-03-08T11:44:03.659Z,90.47
2019-03-08T11:45:03.557Z,91.23
2019-03-08T11:46:03.464Z,91.04
2019-03-08T11:47:03.378Z,91.13
2019-03-08T11:48:03.268Z,91.42
2019-03-08T11:49:03.167Z,91.42
2019-03-08T11:50:03.068Z,91.89
2019-03-08T11:51:02.968Z,91.23
2019-03-08T11:52:02.892Z,91.13
2019-03-08T11:53:02.774Z,91.23
2019-03-08T11:54:02.680Z,90.75
2019-03-08T11:55:02.580Z,91.13
2019-03-08T11:56:02.588Z,91.66
2019-03-08T11:57:02.408Z,91.75
2019-03-08T11:58:02.289Z,90.52
2019-03-08T11:59:02.189Z,90.80
2019-03-08T12:00:02.104Z,91.08
2019-03-08T12:01:02.002Z,91.13
2019-03-08T12:02:01.913Z,90.75
2019-03-08T12:03:01.900Z,91.61
2019-03-08T12:04:01.703Z,91.52
2019-03-08T12:05:01.604Z,91.13
2019-03-08T12:06:01.508Z,91.37
2019-03-08T12:07:01.429Z,91.18
2019-03-08T12:08:01.317Z,91.08
2019-03-08T12:09:01.217Z,90.89
2019-03-08T12:10:01.239Z,91.51
2019-03-08T12:11:01.019Z,92.18
2019-03-08T12:12:00.942Z,91.22
2019-03-08T12:13:00.826Z,91.13
2019-03-08T12:14:00.728Z,91.22
2019-03-08T12:15:00.631Z,91.13
2019-03-08T12:16:00.666Z,91.22
2019-03-08T12:17:00.457Z,91.80
2019-03-08T12:18:00.341Z,92.56
2019-03-08T12:19:00.245Z,91.56
2019-03-08T12:20:00.224Z,92.13
2019-03-08T12:21:00.051Z,92.61
2019-03-08T12:21:59.972Z,93.08
2019-03-08T12:22:59.858Z,92.89
2019-03-08T12:23:59.762Z,93.37
2019-03-08T12:25:01.187Z,93.27
2019-03-08T12:25:59.569Z,93.27
2019-03-08T12:26:59.491Z,93.27
2019-03-08T12:27:59.381Z,93.27
2019-03-08T12:28:59.292Z,93.27
2019-03-08T12:29:59.184Z,92.37
2019-03-08T12:30:59.084Z,93.79
2019-03-08T12:31:58.991Z,93.79
2019-03-08T12:32:58.906Z,94.37
2019-03-08T12:33:58.796Z,93.41
2019-03-08T12:34:58.698Z,93.60
2019-03-08T12:35:58.604Z,93.60
2019-03-08T12:36:58.503Z,93.79
2019-03-08T12:37:58.421Z,93.70
2019-03-08T12:38:58.310Z,93.89
2019-03-08T12:39:58.212Z,93.32
2019-03-08T12:40:58.110Z,93.79
2019-03-08T12:41:58.025Z,93.60
2019-03-08T12:42:57.933Z,93.32
2019-03-08T12:43:57.819Z,93.23
2019-03-08T12:44:57.724Z,92.85
2019-03-08T12:45:57.627Z,92.66
2019-03-08T12:46:57.526Z,93.04
2019-03-08T12:47:57.450Z,92.85
2019-03-08T12:48:57.334Z,93.79
2019-03-08T12:49:57.236Z,92.94
2019-03-08T12:50:57.137Z,92.71